Time;durP1;ratioP1;P1;durP2;ratioP2;P2;SDS_P1;SDS_P2;PMS_P1;PMS_P2;Temp;Humidity;BMP_temperature;BMP_pressure;BME280_temperature;BME280_humidity;BME280_pressure;Samples;Min_cycle;Max_cycle;Signal;HPM_P1;HPM_P2
2021/04/13 00:01:11;;;;;;;5.47;3.42;;;4.80;99.90;;;4.46;82.65;102792.78;3995587;29;20086;-69
2021/04/13 00:03:13;;;;;;;4.47;3.90;;;4.70;99.90;;;4.37;83.59;102794.94;4004822;29;20074;-69
2021/04/13 00:05:40;;;;;;;3.35;3.03;;;4.70;99.90;;;4.54;82.04;102789.00;4010593;29;20038;-69
2021/04/13 00:07:47;;;;;;;5.93;3.17;;;4.70;99.90;;;4.45;82.72;102785.00;3990955;29;20031;-69
2021/04/13 00:09:49;;;;;;;5.88;3.30;;;4.70;99.90;;;4.51;82.52;102789.13;3979402;29;20083;-69
2021/04/13 00:12:02;;;;;;;10.35;4.53;;;4.80;99.90;;;4.39;82.95;102778.28;3979354;29;20058;-69
2021/04/13 00:14:06;;;;;;;5.22;3.65;;;4.70;99.90;;;4.52;81.71;102791.66;3979248;29;20030;-69
2021/04/13 00:16:20;;;;;;;4.53;3.42;;;4.70;99.90;;;4.52;82.31;102790.81;3995693;29;20110;-69
2021/04/13 00:18:31;;;;;;;3.88;3.30;;;4.70;99.90;;;4.44;82.42;102780.72;3980158;29;20035;-69
2021/04/13 00:20:46;;;;;;;4.57;3.70;;;4.70;99.90;;;4.19;82.80;102785.28;3995664;29;20118;-69
2021/04/13 00:22:49;;;;;;;4.68;3.55;;;4.60;99.90;;;4.20;83.12;102780.00;3995807;29;20041;-69
2021/04/13 00:24:51;;;;;;;4.30;3.90;;;4.60;99.90;;;4.26;83.41;102782.34;3964184;30;20043;-69
2021/04/13 00:26:57;;;;;;;6.78;4.03;;;4.60;99.90;;;4.33;83.52;102791.59;3979115;29;20599;-69
2021/04/13 00:29:07;;;;;;;6.25;4.45;;;4.60;99.90;;;4.32;83.16;102784.72;3994240;29;20115;-69
2021/04/13 00:31:09;;;;;;;6.45;4.20;;;4.60;99.90;;;4.31;83.86;102782.16;3980023;29;20043;-69
2021/04/13 00:33:16;;;;;;;5.03;4.18;;;4.50;99.90;;;4.34;83.38;102779.41;3979314;29;20035;-69
2021/04/13 00:35:44;;;;;;;8.32;4.28;;;4.60;99.90;;;4.39;83.57;102780.91;3979330;29;20027;-69
2021/04/13 00:37:43;;;;;;;5.32;3.85;;;4.60;99.90;;;4.46;83.73;102776.25;3981692;29;20094;-69
2021/04/13 00:39:44;;;;;;;5.78;3.72;;;4.70;99.90;;;4.42;84.01;102778.16;3979313;29;20083;-69
2021/04/13 00:42:09;;;;;;;7.38;4.50;;;4.70;99.90;;;4.46;84.08;102771.03;3978920;29;20034;-69
2021/04/13 00:44:12;;;;;;;5.22;4.47;;;4.70;99.90;;;4.47;83.14;102767.50;3979134;29;20505;-69
2021/04/13 00:46:27;;;;;;;4.95;3.65;;;4.70;99.90;;;4.37;83.62;102764.44;3979349;29;20043;-69
2021/04/13 00:48:32;;;;;;;;;;;4.70;99.90;;;4.36;83.01;102769.75;3980259;29;20038;-69
2021/04/13 00:50:42;;;;;;;5.38;4.10;;;4.70;99.90;;;4.23;84.42;102772.03;3995269;29;20381;-69
2021/04/13 00:52:51;;;;;;;5.80;4.10;;;4.60;99.90;;;4.26;84.02;102756.22;3995454;29;20068;-69
2021/04/13 00:54:58;;;;;;;5.40;4.25;;;4.60;99.90;;;4.39;82.99;102764.41;3979367;29;20096;-69
2021/04/13 00:57:12;;;;;;;8.00;4.18;;;4.60;99.90;;;4.36;83.38;102757.50;3979194;29;20030;-69
2021/04/13 00:59:18;;;;;;;3.67;3.00;;;4.70;99.90;;;4.32;84.16;102747.28;3979668;29;20034;-69
2021/04/13 01:01:35;;;;;;;6.53;4.05;;;4.70;99.90;;;4.28;84.40;102758.75;3979011;29;20569;-69
2021/04/13 01:03:44;;;;;;;5.57;3.92;;;4.60;99.90;;;4.24;85.13;102749.38;3991562;29;20037;-69
2021/04/13 01:05:56;;;;;;;3.70;3.40;;;4.50;99.90;;;4.33;85.14;102759.44;3995111;29;20072;-69
2021/04/13 01:07:58;;;;;;;4.30;3.88;;;4.50;99.90;;;4.40;84.36;102759.09;3989139;29;20022;-69
2021/04/13 01:10:30;;;;;;;7.15;4.22;;;4.60;99.90;;;4.54;83.19;102755.03;3993916;29;20134;-69
2021/04/13 01:12:36;;;;;;;7.13;3.75;;;4.60;99.90;;;4.45;82.57;102754.50;3995281;29;20034;-69
2021/04/13 01:14:37;;;;;;;7.70;3.95;;;4.60;99.90;;;4.34;83.05;102761.97;3979066;29;20046;-69
2021/04/13 01:16:45;;;;;;;3.60;3.30;;;4.60;99.90;;;4.09;83.11;102755.25;3978904;29;20479;-69
2021/04/13 01:18:54;;;;;;;3.75;3.38;;;4.50;99.90;;;4.00;84.74;102748.69;3995435;29;20063;-69
2021/04/13 01:21:43;;;;;;;6.65;3.72;;;4.40;99.90;;;3.96;85.18;102743.63;3979298;29;20041;-69
2021/04/13 01:23:53;;;;;;;6.55;4.25;;;4.40;99.90;;;4.01;85.29;102746.88;3995254;29;20452;-69
2021/04/13 01:26:05;;;;;;;5.22;4.00;;;4.40;99.90;;;4.11;85.16;102753.44;3980083;29;20038;-69
2021/04/13 01:28:06;;;;;;;5.10;3.63;;;4.40;99.90;;;3.88;85.48;102755.22;3979449;29;20043;-69
2021/04/13 01:30:11;;;;;;;7.85;4.30;;;4.30;99.90;;;3.91;86.08;102743.84;3994728;29;20146;-69
2021/04/13 01:32:15;;;;;;;5.28;3.53;;;4.30;99.90;;;3.98;86.61;102741.78;3964047;29;20080;-69
2021/04/13 01:34:48;;;;;;;7.00;3.80;;;4.30;99.90;;;4.02;86.28;102748.59;3978972;29;20082;-69
2021/04/13 01:37:22;;;;;;;5.60;3.90;;;4.30;99.90;;;3.86;87.08;102744.00;3995042;29;20098;-69
2021/04/13 01:39:25;;;;;;;4.95;4.07;;;4.30;99.90;;;3.83;87.34;102738.06;3994969;29;20031;-69
2021/04/13 01:42:11;;;;;;;4.35;3.95;;;4.30;99.90;;;4.08;87.09;102751.78;3979113;29;20531;-69
2021/04/13 01:44:06;;;;;;;5.10;4.10;;;4.30;99.90;;;4.08;86.84;102738.75;3981542;29;20091;-69
2021/04/13 01:46:10;;;;;;;4.93;3.80;;;4.30;99.90;;;4.01;87.31;102736.44;3978726;29;20098;-69
2021/04/13 01:48:13;;;;;;;5.00;3.95;;;4.40;99.90;;;4.09;87.13;102740.41;3978997;29;20105;-69
2021/04/13 01:50:18;;;;;;;6.90;4.18;;;4.40;99.90;;;4.10;86.56;102743.88;3978924;29;20043;-69
2021/04/13 01:52:25;;;;;;;4.20;3.33;;;4.40;99.90;;;4.14;86.50;102741.09;3978685;29;20109;-70
2021/04/13 01:54:26;;;;;;;6.97;3.55;;;4.40;99.90;;;4.13;86.34;102735.91;3996986;29;20038;-69
2021/04/13 01:57:01;;;;;;;5.32;3.90;;;4.40;99.90;;;4.19;84.98;102727.81;3981478;29;20050;-69
2021/04/13 01:59:15;;;;;;;5.25;4.35;;;4.40;99.90;;;4.25;84.66;102738.84;3982361;29;20054;-69
2021/04/13 02:01:43;;;;;;;4.82;4.32;;;4.40;99.90;;;4.32;83.89;102742.91;3981295;29;20114;-69
2021/04/13 02:04:02;;;;;;;5.65;3.63;;;4.40;99.90;;;4.11;84.24;102741.22;3994847;29;20050;-69
2021/04/13 02:06:21;;;;;;;4.53;4.03;;;4.50;99.90;;;4.08;84.57;102735.28;3996178;29;20035;-69
2021/04/13 02:08:35;;;;;;;4.50;3.85;;;4.40;99.90;;;4.18;83.98;102734.78;3973147;29;20078;-69
2021/04/13 02:10:57;;;;;;;8.27;3.83;;;4.40;99.90;;;4.10;84.13;102731.69;3973753;29;20411;-69
2021/04/13 02:13:18;;;;;;;7.35;4.15;;;4.40;99.90;;;4.02;84.73;102736.38;3996213;29;20031;-69
2021/04/13 02:15:32;;;;;;;4.55;3.88;;;4.30;99.90;;;4.07;83.62;102734.41;3995947;29;20038;-69
2021/04/13 02:18:08;;;;;;;5.97;3.83;;;4.40;99.90;;;4.08;83.14;102732.66;3996677;29;20069;-69
2021/04/13 02:20:12;;;;;;;;;;;4.30;99.90;;;4.02;83.57;102744.22;3988056;29;20077;-69
2021/04/13 02:22:16;;;;;;;6.15;4.05;;;4.30;99.90;;;4.07;83.14;102738.78;3996128;29;19955;-69
2021/04/13 02:24:26;;;;;;;;;;;4.30;99.90;;;4.07;82.58;102733.56;3996435;29;20103;-69
2021/04/13 02:26:30;;;;;;;4.55;3.45;;;4.30;99.90;;;4.15;81.23;102731.50;3995951;29;19913;-69
2021/04/13 02:28:33;;;;;;;4.55;3.78;;;4.30;99.90;;;4.05;82.07;102743.25;3995730;29;20035;-69
2021/04/13 02:30:44;;;;;;;8.18;3.78;;;4.30;99.90;;;3.88;82.89;102744.78;3995974;29;20042;-69
2021/04/13 02:32:49;;;;;;;4.38;3.60;;;4.30;99.90;;;3.84;82.58;102740.63;3995996;29;20071;-69
2021/04/13 02:35:22;;;;;;;4.65;3.95;;;4.20;99.90;;;3.66;83.34;102738.78;3996075;29;20041;-69
2021/04/13 02:37:41;;;;;;;7.40;4.00;;;4.00;99.90;;;3.68;83.58;102733.47;3995993;29;20570;-69
2021/04/13 02:39:42;;;;;;;4.03;3.60;;;4.00;99.90;;;3.88;82.49;102736.94;3996132;29;20034;-69
2021/04/13 02:42:13;;;;;;;4.25;3.70;;;4.00;99.90;;;3.81;82.33;102737.28;3996964;29;20041;-69
2021/04/13 02:44:18;;;;;;;5.25;3.58;;;4.10;99.90;;;3.73;82.91;102739.38;3996632;29;20038;-69
2021/04/13 02:46:29;;;;;;;3.95;3.40;;;4.00;99.90;;;3.63;83.45;102728.47;3995795;29;20058;-69
2021/04/13 02:48:41;;;;;;;4.28;3.83;;;3.90;99.90;;;3.45;83.71;102731.81;3995717;29;20035;-69
2021/04/13 02:50:49;;;;;;;7.70;3.90;;;3.90;99.90;;;3.58;84.40;102742.63;3996302;29;20038;-69
2021/04/13 02:52:53;;;;;;;5.60;3.33;;;3.80;99.90;;;3.46;84.65;102730.91;3995761;29;20034;-69
2021/04/13 02:54:58;;;;;;;3.92;3.40;;;3.80;99.90;;;3.55;84.07;102729.69;3995800;29;20038;-69
2021/04/13 02:57:06;;;;;;;6.45;4.03;;;3.80;99.90;;;3.56;83.92;102729.63;3995694;29;20415;-69
2021/04/13 02:59:13;;;;;;;5.80;3.30;;;3.80;99.90;;;3.55;83.88;102737.53;3995521;29;20570;-69
2021/04/13 03:01:15;;;;;;;4.32;3.67;;;3.80;99.90;;;3.27;85.22;102730.81;4002054;29;20133;-70
2021/04/13 03:03:33;;;;;;;4.75;3.10;;;3.80;99.90;;;3.44;85.75;102739.69;3990376;29;20113;-69
2021/04/13 03:05:36;;;;;;;5.63;3.72;;;3.70;99.90;;;3.43;85.75;102723.22;3996035;29;20164;-69
2021/04/13 03:07:39;;;;;;;5.57;3.78;;;3.70;99.90;;;3.35;86.17;102730.47;3992519;29;20380;-69
2021/04/13 03:09:41;;;;;;;7.85;3.60;;;3.70;99.90;;;3.41;86.14;102732.00;3980354;29;20031;-69
2021/04/13 03:12:04;;;;;;;5.25;3.67;;;3.70;99.90;;;3.43;85.59;102719.75;3980398;29;20122;-69
2021/04/13 03:14:06;;;;;;;5.55;3.78;;;3.70;99.90;;;3.48;85.73;102720.41;3980252;29;20038;-69
2021/04/13 03:16:07;;;;;;;3.80;3.50;;;3.70;99.90;;;3.33;86.17;102712.28;3996561;29;20121;-69
2021/04/13 03:18:16;;;;;;;5.15;4.53;;;3.70;99.90;;;3.32;85.22;102705.38;3980313;29;20031;-69
2021/04/13 03:20:28;;;;;;;5.57;3.90;;;3.70;99.90;;;3.39;84.01;102707.72;3980597;29;20031;-69
2021/04/13 03:22:32;;;;;;;5.07;4.53;;;3.70;99.90;;;3.34;84.89;102702.72;3980512;29;20038;-70
2021/04/13 03:24:43;;;;;;;5.70;3.72;;;3.70;99.90;;;3.27;84.76;102712.53;3980381;29;20515;-70
2021/04/13 03:26:58;;;;;;;6.22;4.03;;;3.60;99.90;;;3.34;85.66;102716.59;3980538;29;20076;-69
2021/04/13 03:29:07;;;;;;;;;;;3.60;99.90;;;3.31;85.40;102715.88;3980567;29;20065;-69
2021/04/13 03:31:10;;;;;;;5.82;3.97;;;3.70;99.90;;;3.28;86.58;102714.25;3996298;29;19917;-69
2021/04/13 03:33:24;;;;;;;5.00;4.05;;;3.70;99.90;;;3.35;86.61;102712.22;3980463;29;20122;-69
2021/04/13 03:35:27;;;;;;;6.80;4.05;;;3.60;99.90;;;3.23;86.09;102708.34;3980349;29;20038;-69
2021/04/13 03:37:28;;;;;;;9.20;4.77;;;3.60;99.90;;;3.35;84.83;102720.03;3980187;29;20242;-69
2021/04/13 03:39:38;;;;;;;5.45;3.83;;;3.60;99.90;;;3.35;85.26;102704.41;3964885;30;20126;-69
2021/04/13 03:41:50;;;;;;;6.93;4.93;;;3.60;99.90;;;3.20;85.77;102698.03;3980218;29;20434;-69
2021/04/13 03:43:59;;;;;;;6.32;4.43;;;3.60;99.90;;;3.39;85.60;102712.94;3964885;29;20098;-69
2021/04/13 03:46:05;;;;;;;7.00;3.80;;;3.60;99.90;;;3.34;85.28;102711.38;3979987;29;20031;-69
2021/04/13 03:48:21;;;;;;;7.55;4.63;;;3.70;99.90;;;3.50;85.04;102708.13;3980126;29;20033;-69
2021/04/13 03:50:27;;;;;;;5.03;4.22;;;3.70;99.90;;;3.34;84.57;102713.97;3979970;29;20035;-69
2021/04/13 03:52:33;;;;;;;5.13;4.63;;;3.70;99.90;;;3.29;85.08;102717.69;3979959;29;20500;-69
2021/04/13 03:54:37;;;;;;;6.38;4.55;;;3.70;99.90;;;3.26;86.28;102705.63;3996197;29;20034;-69
2021/04/13 03:56:41;;;;;;;6.53;4.50;;;3.60;99.90;;;3.13;86.40;102704.44;3996122;29;20044;-69
2021/04/13 03:58:45;;;;;;;5.07;4.22;;;3.60;99.90;;;3.18;86.67;102712.91;3995772;29;20470;-69
2021/04/13 04:00:46;;;;;;;7.25;5.05;;;3.60;99.90;;;3.22;86.33;102704.06;3979579;29;20058;-69
2021/04/13 04:02:49;;;;;;;4.22;3.83;;;3.60;99.90;;;3.33;85.63;102703.63;3985803;29;20090;-69
2021/04/13 04:05:24;;;;;;;8.02;4.35;;;3.60;99.90;;;3.23;84.70;102705.75;3994825;29;20083;-69
2021/04/13 04:07:45;;;;;;;6.25;4.53;;;3.60;99.90;;;3.13;85.05;102694.00;4009672;29;20069;-69
2021/04/13 04:09:46;;;;;;;8.57;4.25;;;3.50;99.90;;;3.14;85.11;102700.03;3995953;29;20039;-69
2021/04/13 04:11:49;;;;;;;5.85;4.22;;;3.50;99.90;;;3.05;86.04;102710.81;3996059;29;20034;-69
2021/04/13 04:13:51;;;;;;;6.07;3.80;;;3.50;99.90;;;2.95;87.35;102704.28;3979387;29;20079;-69
2021/04/13 04:16:28;;;;;;;8.05;3.90;;;3.40;99.90;;;3.01;85.66;102691.88;3994319;29;20290;-69
2021/04/13 04:18:51;;;;;;;6.50;4.15;;;3.40;99.90;;;3.06;84.33;102697.75;3994659;29;20066;-69
2021/04/13 04:20:52;;;;;;;5.28;4.78;;;3.40;99.90;;;3.06;84.21;102689.91;3979705;29;20046;-69
2021/04/13 04:22:54;;;;;;;7.38;4.70;;;3.40;99.90;;;3.09;84.13;102691.56;3979472;29;20035;-69
2021/04/13 04:25:24;;;;;;;5.10;4.13;;;3.40;99.90;;;3.18;82.90;102707.69;3979382;29;20035;-69
2021/04/13 04:27:45;;;;;;;4.75;4.25;;;3.40;99.90;;;3.16;82.72;102695.63;3980299;29;20035;-69
2021/04/13 04:30:29;;;;;;;5.05;4.20;;;3.40;99.90;;;3.01;82.82;102694.47;3979080;29;20041;-69
2021/04/13 04:32:29;;;;;;;4.70;4.10;;;3.40;99.90;;;2.91;83.71;102695.72;3982090;29;20035;-69
2021/04/13 04:34:30;;;;;;;5.75;3.80;;;3.30;99.90;;;3.03;83.98;102703.06;3995558;29;20041;-69
2021/04/13 04:36:40;;;;;;;3.90;2.97;;;3.30;99.90;;;3.13;83.49;102704.44;3995714;29;20035;-69
2021/04/13 04:38:41;;;;;;;4.70;3.70;;;3.40;99.90;;;2.94;85.40;102700.81;3995647;29;20042;-69
2021/04/13 04:40:47;;;;;;;4.60;4.18;;;3.30;99.90;;;2.97;84.19;102710.28;3979465;29;20027;-69
2021/04/13 04:42:58;;;;;;;4.63;3.88;;;3.30;99.90;;;2.96;84.08;102701.59;3995466;29;20038;-69
2021/04/13 04:45:43;;;;;;;4.40;4.00;;;3.30;99.90;;;2.77;85.06;102700.63;3994057;29;20034;-69
2021/04/13 04:47:47;;;;;;;4.65;4.13;;;3.20;99.90;;;2.72;85.34;102699.94;3961456;29;20074;-69
2021/04/13 04:49:48;;;;;;;4.68;3.75;;;3.10;99.90;;;2.69;86.63;102698.28;3995235;29;20381;-69
2021/04/13 04:51:53;;;;;;;4.78;3.40;;;3.10;99.90;;;2.70;86.06;102688.72;3979176;29;20039;-69
2021/04/13 04:53:54;;;;;;;4.63;4.10;;;3.10;99.90;;;2.75;85.69;102690.25;3979222;29;20084;-69
2021/04/13 04:55:58;;;;;;;5.70;4.35;;;3.10;99.90;;;2.87;85.76;102691.53;3995559;29;20038;-69
2021/04/13 04:57:59;;;;;;;5.20;4.20;;;3.20;99.90;;;3.03;84.52;102703.06;3979318;29;20110;-69
2021/04/13 05:00:00;;;;;;;6.10;3.70;;;3.20;99.90;;;2.94;84.33;102698.22;3978788;29;20055;-69
2021/04/13 05:02:01;;;;;;;6.38;4.80;;;3.20;99.90;;;2.88;85.08;102706.28;3979054;29;20026;-69
2021/04/13 05:04:02;;;;;;;4.47;4.07;;;3.20;99.90;;;2.87;84.51;102704.56;4010540;29;20439;-69
2021/04/13 05:06:03;;;;;;;4.63;3.67;;;3.20;99.90;;;2.83;84.78;102704.75;3994157;29;20035;-69
2021/04/13 05:08:05;;;;;;;7.07;4.15;;;3.20;99.90;;;2.87;84.31;102707.16;4004133;29;20042;-69
2021/04/13 05:10:06;;;;;;;5.65;4.03;;;3.20;99.90;;;2.83;84.88;102705.59;3995278;29;20586;-69
2021/04/13 05:12:08;;;;;;;5.03;4.30;;;3.20;99.90;;;2.84;84.46;102702.06;3979220;29;20064;-69
2021/04/13 05:14:09;;;;;;;5.53;4.07;;;3.10;99.90;;;2.78;84.82;102699.69;3978952;29;20102;-69
2021/04/13 05:16:10;;;;;;;5.32;3.83;;;3.20;99.90;;;2.81;85.55;102704.81;3995260;29;20395;-69
2021/04/13 05:18:12;;;;;;;4.90;3.85;;;3.20;99.90;;;2.89;84.55;102715.81;3978694;29;20430;-69
2021/04/13 05:20:13;;;;;;;5.80;4.65;;;3.20;99.90;;;2.77;84.54;102701.47;3978922;29;20045;-69
2021/04/13 05:22:14;;;;;;;5.65;4.32;;;3.20;99.90;;;2.84;84.65;102717.72;3995229;29;20029;-69
2021/04/13 05:24:15;;;;;;;5.97;4.22;;;3.20;99.90;;;2.82;84.18;102714.31;3995288;29;20038;-69
2021/04/13 05:26:16;;;;;;;6.80;3.80;;;3.10;99.90;;;2.72;85.31;102718.16;3995157;29;20086;-69
2021/04/13 05:28:22;;;;;;;5.90;4.75;;;3.10;99.90;;;2.77;85.68;102721.47;3995797;29;20030;-69
2021/04/13 05:30:24;;;;;;;5.38;4.80;;;3.10;99.90;;;2.73;86.59;102727.69;3981593;29;20038;-70
2021/04/13 05:32:25;;;;;;;5.07;4.57;;;3.10;99.90;;;2.67;86.88;102725.31;3996696;29;20041;-69
2021/04/13 05:34:26;;;;;;;6.25;4.55;;;3.10;99.90;;;2.67;87.41;102725.31;3997694;29;20035;-70
2021/04/13 05:36:27;;;;;;;6.50;4.28;;;3.10;99.90;;;2.66;87.45;102728.81;3981499;29;20038;-70
2021/04/13 05:38:37;;;;;;;5.78;4.70;;;3.10;99.90;;;2.73;87.83;102725.09;3981374;29;20031;-69
2021/04/13 05:40:39;;;;;;;7.60;4.43;;;3.10;99.90;;;2.70;87.29;102727.81;3982101;29;20043;-69
2021/04/13 05:42:40;;;;;;;5.47;4.45;;;3.10;99.90;;;2.68;87.67;102724.44;3981452;29;20035;-69
2021/04/13 05:44:41;;;;;;;6.00;4.25;;;3.10;99.90;;;2.83;86.76;102736.03;3997551;29;20039;-69
2021/04/13 05:46:42;;;;;;;7.22;5.38;;;3.20;99.90;;;2.85;87.34;102736.81;3981665;29;20118;-69
2021/04/13 05:48:43;;;;;;;6.00;5.15;;;3.20;99.90;;;2.89;87.72;102741.00;3981673;29;20038;-69
2021/04/13 05:50:46;;;;;;;6.32;4.97;;;3.30;99.90;;;2.80;87.44;102744.81;3981418;29;20034;-69
2021/04/13 05:52:47;;;;;;;5.13;4.63;;;3.20;99.90;;;2.84;89.12;102751.59;3997604;29;20027;-69
2021/04/13 05:54:48;;;;;;;4.68;4.28;;;3.30;99.90;;;2.93;88.69;102740.81;3997704;29;20037;-69
2021/04/13 05:56:49;;;;;;;6.05;4.40;;;3.30;99.90;;;2.99;87.00;102744.94;3997756;29;20501;-69
2021/04/13 05:58:50;;;;;;;4.30;3.88;;;3.30;99.90;;;3.02;85.55;102750.03;3997300;29;20038;-69
2021/04/13 06:00:55;;;;;;;6.65;4.97;;;3.40;99.90;;;3.03;85.59;102754.38;3981352;29;20042;-69
2021/04/13 06:02:56;;;;;;;;;;;3.40;99.90;;;2.93;86.28;102753.84;4005238;29;20094;-69
2021/04/13 06:05:00;;;;;;;6.05;5.30;;;3.40;99.90;;;2.97;86.82;102757.19;3996289;29;19958;-69
2021/04/13 06:07:01;;;;;;;6.85;4.28;;;3.40;99.90;;;3.06;86.53;102747.28;3996316;29;20086;-69
2021/04/13 06:09:02;;;;;;;7.25;4.40;;;3.50;99.90;;;3.10;85.61;102759.31;3998730;29;20043;-69
2021/04/13 06:11:03;;;;;;;5.25;4.05;;;3.50;99.90;;;3.12;86.27;102764.44;3981290;29;20400;-69
2021/04/13 06:13:05;;;;;;;7.68;4.63;;;3.50;99.90;;;3.11;85.85;102763.59;3997319;29;20051;-69
2021/04/13 06:15:07;;;;;;;4.53;4.13;;;3.50;99.90;;;3.14;86.41;102766.06;3981002;29;20522;-69
2021/04/13 06:17:10;;;;;;;5.18;4.68;;;3.60;99.90;;;3.25;85.46;102766.53;3977473;29;20114;-69
2021/04/13 06:19:11;;;;;;;6.32;4.15;;;3.60;99.90;;;3.32;85.19;102772.34;3997165;29;20105;-69
2021/04/13 06:21:12;;;;;;;6.10;4.63;;;3.70;99.90;;;3.29;84.96;102770.69;4007816;29;20037;-68
2021/04/13 06:23:13;;;;;;;8.55;5.28;;;3.70;99.90;;;3.30;85.68;102774.16;4012366;29;20033;-69
2021/04/13 06:25:17;;;;;;;7.45;5.18;;;3.70;99.90;;;3.35;85.91;102772.22;3995849;29;20151;-68
2021/04/13 06:27:18;;;;;;;5.60;4.13;;;3.80;99.90;;;3.50;86.07;102782.03;4012440;29;20567;-69
2021/04/13 06:29:19;;;;;;;8.75;5.15;;;3.90;99.90;;;3.49;86.24;102775.16;4012092;29;20042;-69
2021/04/13 06:31:20;;;;;;;6.30;5.40;;;3.90;99.90;;;3.61;86.40;102785.09;4012096;29;20090;-69
2021/04/13 06:33:22;;;;;;;6.43;4.50;;;4.00;99.90;;;3.62;86.19;102780.69;4012299;29;20026;-69
2021/04/13 06:35:22;;;;;;;6.97;5.25;;;4.10;99.90;;;3.74;86.52;102777.59;3995687;29;20121;-69
2021/04/13 06:37:25;;;;;;;10.95;5.60;;;4.10;99.90;;;3.96;86.36;102785.41;3995701;29;20034;-69
2021/04/13 06:39:26;;;;;;;7.90;5.63;;;4.30;99.90;;;3.98;86.95;102789.66;3995215;29;20471;-69
2021/04/13 06:41:44;;;;;;;7.07;5.30;;;4.30;99.90;;;4.13;86.13;102794.22;4012030;29;20038;-69
2021/04/13 06:44:04;;;;;;;10.65;5.30;;;4.40;99.90;;;4.12;87.11;102795.13;4011881;29;20037;-68
2021/04/13 06:46:26;;;;;;;8.30;4.95;;;4.50;99.90;;;4.18;86.71;102800.09;4011697;29;20548;-69
2021/04/13 06:48:46;;;;;;;8.48;4.85;;;4.50;99.90;;;4.27;86.44;102797.09;4011800;29;20034;-69
2021/04/13 06:50:53;;;;;;;8.00;5.00;;;4.60;99.90;;;4.33;86.76;102801.25;4011661;29;20065;-69
2021/04/13 06:53:48;;;;;;;12.10;5.07;;;4.70;99.90;;;4.44;86.20;102799.84;4011901;29;20036;-70
2021/04/13 06:56:07;;;;;;;5.45;4.90;;;4.80;99.90;;;4.62;85.54;102803.44;3988513;29;20042;-69
2021/04/13 06:59:01;;;;;;;6.97;5.55;;;4.90;99.90;;;4.62;86.00;102802.56;4011772;29;20026;-70
2021/04/13 07:01:07;;;;;;;8.32;5.13;;;4.90;99.90;;;4.67;86.07;102801.44;4006341;29;20102;-69
2021/04/13 07:03:58;;;;;;;7.32;5.50;;;5.10;99.90;;;4.79;86.14;102800.06;4005266;29;20387;-70
2021/04/13 07:06:33;;;;;;;9.15;5.65;;;5.10;99.90;;;4.87;85.95;102801.41;3980522;29;20399;-69
2021/04/13 07:08:40;;;;;;;;;;;5.20;99.90;;;4.85;85.41;102797.16;3977412;29;20035;-69
2021/04/13 07:10:49;;;;;;;7.60;4.75;;;5.30;99.90;;;4.95;86.27;102809.78;3980580;29;19917;-69
2021/04/13 07:13:28;;;;;;;7.60;5.03;;;5.40;99.90;;;5.22;84.67;102812.03;3980990;29;20407;-69
2021/04/13 07:15:51;;;;;;;8.23;5.18;;;5.60;99.90;;;5.23;84.38;102809.34;3996354;29;20030;-70
2021/04/13 07:18:01;;;;;;;7.10;4.78;;;5.60;99.90;;;5.30;85.38;102817.75;3979364;29;20039;-69
2021/04/13 07:20:30;;;;;;;8.73;5.45;;;5.70;99.90;;;5.04;84.91;102813.72;3992186;29;20030;-69
2021/04/13 07:22:54;;;;;;;7.47;5.70;;;5.80;99.90;;;5.16;84.13;102810.56;3979026;29;20080;-69
2021/04/13 07:25:16;;;;;;;8.48;5.18;;;5.80;99.90;;;5.32;84.93;102823.75;3977380;29;20035;-69
2021/04/13 07:27:46;;;;;;;8.95;6.20;;;5.90;99.90;;;5.36;84.74;102822.69;3980814;29;20507;-67
2021/04/13 07:30:35;;;;;;;6.05;5.45;;;5.90;99.90;;;5.45;84.44;102817.88;3981142;29;20489;-67
2021/04/13 07:32:36;;;;;;;9.07;5.85;;;6.00;99.90;;;5.47;85.83;102828.28;3983029;29;20039;-68
2021/04/13 07:34:41;;;;;;;8.10;5.93;;;6.10;99.90;;;5.46;85.16;102824.81;3978746;29;20062;-68
2021/04/13 07:36:53;;;;;;;9.88;6.10;;;6.10;99.90;;;5.44;84.47;102818.78;3995615;29;20061;-68
2021/04/13 07:38:56;;;;;;;10.45;5.50;;;6.20;99.90;;;5.48;85.06;102822.13;3980134;29;20023;-68
2021/04/13 07:41:07;;;;;;;7.67;5.50;;;6.20;99.90;;;5.66;83.67;102817.78;3964370;29;20126;-69
2021/04/13 07:43:21;;;;;;;8.15;6.10;;;6.30;99.90;;;5.76;83.41;102814.66;3979486;29;20031;-69
2021/04/13 07:46:23;;;;;;;9.43;5.57;;;6.40;99.90;;;5.61;82.95;102832.88;3995158;29;20034;-68
2021/04/13 07:48:50;;;;;;;8.07;5.13;;;6.50;99.90;;;5.83;83.67;102817.81;3948890;30;20043;-68
2021/04/13 07:51:02;;;;;;;8.80;5.00;;;6.50;99.90;;;5.95;81.30;102822.47;3983080;29;20042;-70
2021/04/13 07:53:21;;;;;;;6.70;5.38;;;6.60;99.90;;;5.87;81.31;102819.38;3995638;29;20065;-68
2021/04/13 07:55:36;;;;;;;7.53;4.35;;;6.70;99.90;;;5.90;79.31;102829.72;3978647;29;20405;-68
2021/04/13 07:57:55;;;;;;;10.60;5.07;;;6.70;99.90;;;6.07;79.63;102822.72;3998957;29;20063;-68
2021/04/13 08:00:06;;;;;;;7.45;5.35;;;6.70;99.90;;;6.25;77.64;102822.72;4010071;29;20078;-69
2021/04/13 08:02:07;;;;;;;6.35;5.47;;;6.90;99.90;;;6.36;76.73;102816.00;3998041;29;20038;-69
2021/04/13 08:04:08;;;;;;;4.45;3.97;;;7.00;99.90;;;6.46;77.57;102824.25;4007761;29;20541;-69
2021/04/13 08:06:27;;;;;;;5.55;4.93;;;7.10;99.90;;;6.52;74.99;102821.31;4010046;29;20050;-69
2021/04/13 08:08:36;;;;;;;7.38;4.22;;;7.20;99.90;;;6.38;72.53;102819.41;4000956;29;20090;-69
2021/04/13 08:10:40;;;;;;;5.53;3.85;;;7.30;99.90;;;6.52;72.69;102824.78;3978951;29;20035;-69
2021/04/13 08:13:07;;;;;;;8.07;3.90;;;7.40;99.90;;;6.43;71.92;102814.78;3979033;29;20031;-70
2021/04/13 08:15:14;;;;;;;5.32;4.20;;;7.40;99.90;;;6.38;71.20;102819.41;3978893;29;20038;-71
2021/04/13 08:17:27;;;;;;;5.75;3.63;;;7.40;99.90;;;6.43;70.06;102817.41;3979094;29;20067;-70
2021/04/13 08:19:32;;;;;;;4.13;3.72;;;7.30;99.90;;;6.34;71.05;102815.25;3979630;29;20031;-70
2021/04/13 08:21:35;;;;;;;6.38;3.42;;;7.40;99.90;;;6.47;70.22;102813.69;3994809;29;20038;-68
2021/04/13 08:23:38;;;;;;;3.92;3.33;;;7.40;99.90;;;6.52;70.43;102810.81;3978700;29;20396;-69
2021/04/13 08:25:49;;;;;;;4.50;3.95;;;7.50;99.90;;;6.47;69.41;102811.06;3994480;29;20433;-69
2021/04/13 08:27:50;;;;;;;5.80;4.60;;;7.40;99.90;;;6.57;68.90;102814.91;3978888;29;20039;-68
2021/04/13 08:30:15;;;;;;;7.15;3.83;;;7.50;99.90;;;6.57;68.23;102816.69;3978543;29;20034;-69
2021/04/13 08:35:09;;;;;;;5.55;4.28;;;7.50;99.90;;;6.82;66.40;102818.88;3994386;29;19919;-69
2021/04/13 08:37:47;;;;;;;5.15;3.88;;;7.80;99.90;;;6.86;65.08;102817.78;3993625;29;20560;-69
2021/04/13 08:40:10;;;;;;;5.60;3.45;;;7.70;99.90;;;6.96;64.73;102817.19;3965557;29;20047;-69
2021/04/13 08:42:19;;;;;;;5.38;3.35;;;7.80;99.90;;;7.15;64.09;102817.91;3994873;29;20126;-69
2021/04/13 08:44:35;;;;;;;4.68;3.30;;;7.90;99.90;;;7.26;63.65;102819.13;3994237;29;20035;-69
2021/04/13 08:47:00;;;;;;;4.28;3.35;;;8.00;99.90;;;7.35;63.36;102824.69;3994757;29;20043;-70
2021/04/13 08:49:22;;;;;;;4.32;3.42;;;8.20;99.90;;;7.50;63.21;102813.34;3994691;29;20041;-71
2021/04/13 08:51:43;;;;;;;4.07;3.13;;;8.30;99.90;;;7.34;63.40;102803.78;3994881;29;20049;-70
2021/04/13 08:53:49;;;;;;;5.63;3.67;;;8.40;99.90;;;7.20;62.51;102807.16;3979191;29;20026;-71
2021/04/13 08:56:00;;;;;;;5.25;3.42;;;8.30;99.90;;;7.36;63.80;102804.53;3978070;29;20071;-70
2021/04/13 08:58:17;;;;;;;6.15;3.63;;;8.40;99.90;;;7.60;63.11;102811.91;3979881;29;20499;-71
2021/04/13 09:00:47;;;;;;;4.13;3.70;;;8.50;99.90;;;7.57;61.06;102805.97;3994704;29;20096;-70
2021/04/13 09:02:58;;;;;;;8.77;3.80;;;8.60;99.90;;;7.51;60.75;102794.03;3977632;29;20109;-69
2021/04/13 09:05:10;;;;;;;6.25;3.63;;;8.60;99.90;;;7.79;60.47;102809.09;3995914;29;20034;-70
2021/04/13 09:07:36;;;;;;;4.32;3.72;;;8.70;99.90;;;7.95;59.00;102807.25;4012878;29;20026;-70
2021/04/13 09:10:11;;;;;;;4.07;3.67;;;8.80;99.90;;;8.06;59.36;102814.53;3984205;29;20418;-70
2021/04/13 09:12:17;;;;;;;3.88;3.47;;;9.00;99.90;;;8.16;57.23;102815.66;4012786;29;20038;-72
2021/04/13 09:14:43;;;;;;;5.80;3.42;;;9.10;99.90;;;8.07;56.54;102814.41;4012212;29;20034;-71
2021/04/13 09:17:30;;;;;;;4.00;3.55;;;9.20;99.90;;;8.01;56.94;102816.56;3996383;29;20027;-70
2021/04/13 09:19:48;;;;;;;5.72;4.10;;;9.20;99.40;;;8.22;58.25;102825.81;4012655;29;20033;-71
2021/04/13 09:21:53;;;;;;;4.80;4.40;;;9.20;99.90;;;8.12;57.73;102822.88;3997720;29;20107;-70